sensor_id;sensor_type;location;lat;lon;timestamp;pressure;altitude;pressure_sealevel;temperature;humidity
20424;BME280;10371;49.042;8.002;2023-05-09T00:00:50;100108.94;;;14.95;100.00
20424;BME280;10371;49.042;8.002;2023-05-09T00:01:50;100112.66;;;14.93;100.00
20424;BME280;10371;49.042;8.002;2023-05-09T00:02:50;100110.72;;;14.95;100.00
20424;BME280;10371;49.042;8.002;2023-05-09T00:03:51;100108.94;;;14.95;100.00
20424;BME280;10371;49.042;8.002;2023-05-09T00:04:51;100109.91;;;14.94;100.00
20424;BME280;10371;49.042;8.002;2023-05-09T00:05:51;100105.66;;;14.93;100.00
20424;BME280;10371;49.042;8.002;2023-05-09T00:06:52;100108.09;;;14.95;100.00
20424;BME280;10371;49.042;8.002;2023-05-09T00:07:52;100114.16;;;14.95;100.00
20424;BME280;10371;49.042;8.002;2023-05-09T00:08:53;100113.34;;;14.95;100.00
20424;BME280;10371;49.042;8.002;2023-05-09T00:09:53;100114.16;;;14.95;100.00
20424;BME280;10371;49.042;8.002;2023-05-09T00:10:54;100113.34;;;14.95;100.00
20424;BME280;10371;49.042;8.002;2023-05-09T00:11:54;100114.16;;;14.95;100.00
20424;BME280;10371;49.042;8.002;2023-05-09T00:12:54;100114.16;;;14.95;100.00
20424;BME280;10371;49.042;8.002;2023-05-09T00:13:55;100108.28;;;14.93;100.00
20424;BME280;10371;49.042;8.002;2023-05-09T00:14:56;100115.84;;;14.96;100.00
20424;BME280;10371;49.042;8.002;2023-05-09T00:15:57;100108.78;;;14.97;100.00
20424;BME280;10371;49.042;8.002;2023-05-09T00:16:57;100108.09;;;14.95;100.00
20424;BME280;10371;49.042;8.002;2023-05-09T00:17:58;100110.59;;;14.96;100.00
20424;BME280;10371;49.042;8.002;2023-05-09T00:18:59;100094.31;;;14.93;100.00
20424;BME280;10371;49.042;8.002;2023-05-09T00:19:59;100100.94;;;14.97;100.00
20424;BME280;10371;49.042;8.002;2023-05-09T00:21:04;100100.09;;;14.96;100.00
20424;BME280;10371;49.042;8.002;2023-05-09T00:22:04;100102.72;;;14.96;100.00
20424;BME280;10371;49.042;8.002;2023-05-09T00:23:05;100098.31;;;14.97;100.00
20424;BME280;10371;49.042;8.002;2023-05-09T00:24:05;100096.66;;;14.96;100.00
20424;BME280;10371;49.042;8.002;2023-05-09T00:25:07;100100.94;;;14.97;100.00
20424;BME280;10371;49.042;8.002;2023-05-09T00:26:09;100089.63;;;14.96;100.00
20424;BME280;10371;49.042;8.002;2023-05-09T00:27:09;100091.56;;;14.94;100.00
20424;BME280;10371;49.042;8.002;2023-05-09T00:28:09;100093.34;;;14.94;100.00
20424;BME280;10371;49.042;8.002;2023-05-09T00:29:09;100087.44;;;14.92;100.00
20424;BME280;10371;49.042;8.002;2023-05-09T00:30:10;100092.66;;;14.92;100.00
20424;BME280;10371;49.042;8.002;2023-05-09T00:31:10;100092.66;;;14.92;100.00
20424;BME280;10371;49.042;8.002;2023-05-09T00:32:11;100087.72;;;14.89;100.00
20424;BME280;10371;49.042;8.002;2023-05-09T00:33:11;100091.16;;;14.89;100.00
20424;BME280;10371;49.042;8.002;2023-05-09T00:34:11;100086.09;;;14.88;100.00
20424;BME280;10371;49.042;8.002;2023-05-09T00:35:11;100089.66;;;14.87;100.00
20424;BME280;10371;49.042;8.002;2023-05-09T00:36:12;100089.94;;;14.84;100.00
20424;BME280;10371;49.042;8.002;2023-05-09T00:37:12;100085.81;;;14.81;100.00
20424;BME280;10371;49.042;8.002;2023-05-09T00:38:12;100082.66;;;14.78;100.00
20424;BME280;10371;49.042;8.002;2023-05-09T00:39:13;100089.72;;;14.77;100.00
20424;BME280;10371;49.042;8.002;2023-05-09T00:40:13;100081.56;;;14.70;100.00
20424;BME280;10371;49.042;8.002;2023-05-09T00:41:13;100093.72;;;14.71;100.00
20424;BME280;10371;49.042;8.002;2023-05-09T00:42:14;100087.66;;;14.71;100.00
20424;BME280;10371;49.042;8.002;2023-05-09T00:43:14;100087.94;;;14.68;100.00
20424;BME280;10371;49.042;8.002;2023-05-09T00:44:15;100085.75;;;14.63;100.00
20424;BME280;10371;49.042;8.002;2023-05-09T00:45:16;100089.19;;;14.64;100.00
20424;BME280;10371;49.042;8.002;2023-05-09T00:46:16;100088.66;;;14.60;100.00
20424;BME280;10371;49.042;8.002;2023-05-09T00:47:16;100081.22;;;14.56;100.00
20424;BME280;10371;49.042;8.002;2023-05-09T00:48:17;100084.66;;;14.56;100.00
20424;BME280;10371;49.042;8.002;2023-05-09T00:49:17;100078.34;;;14.49;100.00
20424;BME280;10371;49.042;8.002;2023-05-09T00:50:18;100083.56;;;14.49;100.00
20424;BME280;10371;49.042;8.002;2023-05-09T00:51:19;100088.13;;;14.47;100.00
20424;BME280;10371;49.042;8.002;2023-05-09T00:52:19;100090.88;;;14.45;100.00
20424;BME280;10371;49.042;8.002;2023-05-09T00:53:23;100086.72;;;14.43;100.00
20424;BME280;10371;49.042;8.002;2023-05-09T00:54:24;100084.28;;;14.41;100.00
20424;BME280;10371;49.042;8.002;2023-05-09T00:55:24;100086.19;;;14.39;100.00
20424;BME280;10371;49.042;8.002;2023-05-09T00:56:26;100081.25;;;14.36;100.00
20424;BME280;10371;49.042;8.002;2023-05-09T00:57:26;100079.03;;;14.31;100.00
20424;BME280;10371;49.042;8.002;2023-05-09T00:58:27;100074.09;;;14.28;100.00
20424;BME280;10371;49.042;8.002;2023-05-09T00:59:27;100078.50;;;14.28;100.00
20424;BME280;10371;49.042;8.002;2023-05-09T01:00:27;100075.19;;;14.26;100.00
20424;BME280;10371;49.042;8.002;2023-05-09T01:01:28;100071.06;;;14.23;100.00
20424;BME280;10371;49.042;8.002;2023-05-09T01:02:29;100071.34;;;14.20;100.00
20424;BME280;10371;49.042;8.002;2023-05-09T01:03:30;100073.31;;;14.18;100.00
20424;BME280;10371;49.042;8.002;2023-05-09T01:04:30;100076.88;;;14.17;100.00
20424;BME280;10371;49.042;8.002;2023-05-09T01:05:39;100069.31;;;14.14;100.00
20424;BME280;10371;49.042;8.002;2023-05-09T01:07:03;100069.72;;;14.09;100.00
20424;BME280;10371;49.042;8.002;2023-05-09T01:08:19;100070.84;;;14.07;100.00
20424;BME280;10371;49.042;8.002;2023-05-09T01:09:53;100062.59;;;14.02;100.00
20424;BME280;10371;49.042;8.002;2023-05-09T01:11:01;100068.09;;;13.99;100.00
20424;BME280;10371;49.042;8.002;2023-05-09T01:12:11;100062.16;;;13.97;100.00
20424;BME280;10371;49.042;8.002;2023-05-09T01:13:35;100059.00;;;13.93;100.00
20424;BME280;10371;49.042;8.002;2023-05-09T01:16:07;100052.78;;;13.84;100.00
20424;BME280;10371;49.042;8.002;2023-05-09T01:17:52;100056.66;;;13.80;100.00
20424;BME280;10371;49.042;8.002;2023-05-09T01:19:11;100048.13;;;13.78;100.00
20424;BME280;10371;49.042;8.002;2023-05-09T01:20:44;100053.50;;;13.77;100.00
20424;BME280;10371;49.042;8.002;2023-05-09T01:21:46;100048.69;;;13.72;100.00
20424;BME280;10371;49.042;8.002;2023-05-09T01:22:56;100051.31;;;13.72;100.00
20424;BME280;10371;49.042;8.002;2023-05-09T01:26:54;100043.47;;;13.62;100.00
20424;BME280;10371;49.042;8.002;2023-05-09T01:30:36;100045.50;;;13.59;100.00
20424;BME280;10371;49.042;8.002;2023-05-09T01:31:40;100044.69;;;13.58;100.00
20424;BME280;10371;49.042;8.002;2023-05-09T01:32:42;100049.91;;;13.58;100.00
20424;BME280;10371;49.042;8.002;2023-05-09T01:33:48;100048.28;;;13.57;100.00
20424;BME280;10371;49.042;8.002;2023-05-09T01:34:53;100043.19;;;13.56;100.00
20424;BME280;10371;49.042;8.002;2023-05-09T01:35:58;100052.00;;;13.55;100.00
20424;BME280;10371;49.042;8.002;2023-05-09T01:37:03;100050.19;;;13.55;100.00
20424;BME280;10371;49.042;8.002;2023-05-09T01:38:09;100041.38;;;13.56;100.00
20424;BME280;10371;49.042;8.002;2023-05-09T01:39:12;100044.00;;;13.56;100.00
20424;BME280;10371;49.042;8.002;2023-05-09T01:40:14;100039.63;;;13.57;100.00
20424;BME280;10371;49.042;8.002;2023-05-09T01:41:16;100039.75;;;13.55;100.00
20424;BME280;10371;49.042;8.002;2023-05-09T01:42:19;100034.50;;;13.55;100.00
20424;BME280;10371;49.042;8.002;2023-05-09T01:43:21;100037.94;;;13.56;100.00
20424;BME280;10371;49.042;8.002;2023-05-09T01:44:24;100035.31;;;13.56;100.00
20424;BME280;10371;49.042;8.002;2023-05-09T01:45:25;100031.06;;;13.55;100.00
20424;BME280;10371;49.042;8.002;2023-05-09T01:46:27;100040.44;;;13.57;100.00
20424;BME280;10371;49.042;8.002;2023-05-09T01:47:27;100035.19;;;13.57;100.00
20424;BME280;10371;49.042;8.002;2023-05-09T01:48:29;100038.63;;;13.58;100.00
20424;BME280;10371;49.042;8.002;2023-05-09T01:49:31;100033.41;;;13.58;100.00
20424;BME280;10371;49.042;8.002;2023-05-09T01:50:34;100042.06;;;13.58;100.00
20424;BME280;10371;49.042;8.002;2023-05-09T01:51:36;100033.41;;;13.58;100.00
20424;BME280;10371;49.042;8.002;2023-05-09T01:52:38;100034.22;;;13.58;100.00
20424;BME280;10371;49.042;8.002;2023-05-09T01:53:41;100031.50;;;13.60;100.00
20424;BME280;10371;49.042;8.002;2023-05-09T01:54:43;100035.75;;;13.61;100.00
20424;BME280;10371;49.042;8.002;2023-05-09T01:55:46;100032.16;;;13.62;100.00
20424;BME280;10371;49.042;8.002;2023-05-09T01:56:48;100032.03;;;13.63;100.00
20424;BME280;10371;49.042;8.002;2023-05-09T01:57:49;100028.59;;;13.63;100.00
20424;BME280;10371;49.042;8.002;2023-05-09T01:58:50;100024.19;;;13.63;100.00
20424;BME280;10371;49.042;8.002;2023-05-09T01:59:52;100027.63;;;13.64;100.00
20424;BME280;10371;49.042;8.002;2023-05-09T02:00:54;100019.06;;;13.62;100.00
20424;BME280;10371;49.042;8.002;2023-05-09T02:01:55;100030.22;;;13.64;100.00
20424;BME280;10371;49.042;8.002;2023-05-09T02:02:56;100024.31;;;13.62;100.00
20424;BME280;10371;49.042;8.002;2023-05-09T02:03:57;100034.22;;;13.58;100.00
20424;BME280;10371;49.042;8.002;2023-05-09T02:04:58;100027.34;;;13.57;100.00
20424;BME280;10371;49.042;8.002;2023-05-09T02:06:00;100026.53;;;13.57;100.00
20424;BME280;10371;49.042;8.002;2023-05-09T02:07:02;100032.88;;;13.54;100.00
20424;BME280;10371;49.042;8.002;2023-05-09T02:08:04;100035.19;;;13.57;100.00
20424;BME280;10371;49.042;8.002;2023-05-09T02:09:05;100036.72;;;13.60;100.00
20424;BME280;10371;49.042;8.002;2023-05-09T02:10:06;100034.78;;;13.62;100.00
20424;BME280;10371;49.042;8.002;2023-05-09T02:11:08;100039.59;;;13.67;100.00
20424;BME280;10371;49.042;8.002;2023-05-09T02:12:08;100035.19;;;13.67;100.00
20424;BME280;10371;49.042;8.002;2023-05-09T02:13:08;100027.63;;;13.64;100.00
20424;BME280;10371;49.042;8.002;2023-05-09T02:14:08;100038.09;;;13.64;100.00
20424;BME280;10371;49.042;8.002;2023-05-09T02:15:09;100030.66;;;13.69;100.00
20424;BME280;10371;49.042;8.002;2023-05-09T02:16:10;100033.97;;;13.71;100.00
20424;BME280;10371;49.042;8.002;2023-05-09T02:17:11;100033.69;;;13.74;100.00
20424;BME280;10371;49.042;8.002;2023-05-09T02:18:15;100029.16;;;13.76;100.00
20424;BME280;10371;49.042;8.002;2023-05-09T02:19:16;100030.50;;;13.80;100.00
20424;BME280;10371;49.042;8.002;2023-05-09T02:20:16;100030.38;;;13.82;100.00
20424;BME280;10371;49.042;8.002;2023-05-09T02:21:17;100029.41;;;13.83;100.00
20424;BME280;10371;49.042;8.002;2023-05-09T02:22:17;100031.03;;;13.84;100.00
20424;BME280;10371;49.042;8.002;2023-05-09T02:23:18;100037.78;;;13.86;100.00
20424;BME280;10371;49.042;8.002;2023-05-09T02:24:18;100029.66;;;13.90;100.00
20424;BME280;10371;49.042;8.002;2023-05-09T02:25:19;100032.28;;;13.90;100.00
20424;BME280;10371;49.042;8.002;2023-05-09T02:26:19;100033.78;;;13.92;100.00
20424;BME280;10371;49.042;8.002;2023-05-09T02:27:20;100035.59;;;13.92;100.00
20424;BME280;10371;49.042;8.002;2023-05-09T02:28:22;100037.22;;;13.93;100.00
20424;BME280;10371;49.042;8.002;2023-05-09T02:29:29;100035.19;;;13.96;100.00
20424;BME280;10371;49.042;8.002;2023-05-09T02:30:43;100039.44;;;13.97;100.00
20424;BME280;10371;49.042;8.002;2023-05-09T02:31:45;100046.31;;;13.98;100.00
20424;BME280;10371;49.042;8.002;2023-05-09T02:32:49;100043.44;;;14.01;100.00
20424;BME280;10371;49.042;8.002;2023-05-09T02:33:52;100038.31;;;14.00;100.00
20424;BME280;10371;49.042;8.002;2023-05-09T02:34:54;100044.09;;;14.03;100.00
20424;BME280;10371;49.042;8.002;2023-05-09T02:35:55;100041.34;;;14.05;100.00
20424;BME280;10371;49.042;8.002;2023-05-09T02:36:56;100037.75;;;14.06;100.00
20424;BME280;10371;49.042;8.002;2023-05-09T02:37:58;100038.56;;;14.06;100.00
20424;BME280;10371;49.042;8.002;2023-05-09T02:38:59;100041.88;;;14.08;100.00
20424;BME280;10371;49.042;8.002;2023-05-09T02:40:00;100020.94;;;14.08;100.00
20424;BME280;10371;49.042;8.002;2023-05-09T02:41:00;100032.25;;;14.09;100.00
20424;BME280;10371;49.042;8.002;2023-05-09T02:42:05;100026.88;;;14.11;100.00
20424;BME280;10371;49.042;8.002;2023-05-09T02:43:06;100033.75;;;14.12;100.00
20424;BME280;10371;49.042;8.002;2023-05-09T02:44:06;100034.72;;;14.11;100.00
20424;BME280;10371;49.042;8.002;2023-05-09T02:45:07;100031.28;;;14.10;100.00
20424;BME280;10371;49.042;8.002;2023-05-09T02:46:09;100037.34;;;14.11;100.00
20424;BME280;10371;49.042;8.002;2023-05-09T02:47:10;100032.25;;;14.09;100.00
20424;BME280;10371;49.042;8.002;2023-05-09T02:48:10;100032.25;;;14.09;100.00
20424;BME280;10371;49.042;8.002;2023-05-09T02:49:10;100023.56;;;14.08;100.00
20424;BME280;10371;49.042;8.002;2023-05-09T02:50:11;100028.97;;;14.07;100.00
20424;BME280;10371;49.042;8.002;2023-05-09T02:51:11;100016.81;;;14.06;100.00
20424;BME280;10371;49.042;8.002;2023-05-09T02:52:11;100016.13;;;14.04;100.00
20424;BME280;10371;49.042;8.002;2023-05-09T02:53:12;100022.34;;;14.03;100.00
20424;BME280;10371;49.042;8.002;2023-05-09T02:54:12;100020.00;;;14.00;100.00
20424;BME280;10371;49.042;8.002;2023-05-09T02:55:12;100021.94;;;13.98;100.00
20424;BME280;10371;49.042;8.002;2023-05-09T02:56:12;100020.28;;;13.97;100.00
20424;BME280;10371;49.042;8.002;2023-05-09T02:57:13;100021.94;;;13.98;100.00
20424;BME280;10371;49.042;8.002;2023-05-09T02:58:13;100025.38;;;13.98;100.00
20424;BME280;10371;49.042;8.002;2023-05-09T02:59:14;100020.81;;;14.00;100.00
20424;BME280;10371;49.042;8.002;2023-05-09T03:00:14;100017.38;;;14.00;100.00
20424;BME280;10371;49.042;8.002;2023-05-09T03:01:17;100021.81;;;13.99;100.00
20424;BME280;10371;49.042;8.002;2023-05-09T03:02:19;100015.59;;;14.00;100.00
20424;BME280;10371;49.042;8.002;2023-05-09T03:03:20;100014.78;;;14.00;100.00
20424;BME280;10371;49.042;8.002;2023-05-09T03:04:22;100017.38;;;14.00;100.00
20424;BME280;10371;49.042;8.002;2023-05-09T03:05:22;100012.03;;;14.01;100.00
20424;BME280;10371;49.042;8.002;2023-05-09T03:06:22;100011.03;;;14.02;100.00
20424;BME280;10371;49.042;8.002;2023-05-09T03:07:23;100020.53;;;14.03;100.00
20424;BME280;10371;49.042;8.002;2023-05-09T03:08:23;100013.50;;;14.04;100.00
20424;BME280;10371;49.042;8.002;2023-05-09T03:09:23;100009.13;;;14.04;100.00
20424;BME280;10371;49.042;8.002;2023-05-09T03:10:24;100006.63;;;14.03;100.00
20424;BME280;10371;49.042;8.002;2023-05-09T03:11:24;100008.28;;;14.04;100.00
20424;BME280;10371;49.042;8.002;2023-05-09T03:12:24;100008.28;;;14.04;100.00
20424;BME280;10371;49.042;8.002;2023-05-09T03:13:24;100008.28;;;14.04;100.00
20424;BME280;10371;49.042;8.002;2023-05-09T03:14:25;100002.09;;;14.05;100.00
20424;BME280;10371;49.042;8.002;2023-05-09T03:15:25;99996.84;;;14.05;100.00
20424;BME280;10371;49.042;8.002;2023-05-09T03:16:25;99995.88;;;14.06;100.00
20424;BME280;10371;49.042;8.002;2023-05-09T03:17:26;99993.41;;;14.04;100.00
20424;BME280;10371;49.042;8.002;2023-05-09T03:18:26;99997.81;;;14.04;100.00
20424;BME280;10371;49.042;8.002;2023-05-09T03:19:26;99992.56;;;14.04;100.00
20424;BME280;10371;49.042;8.002;2023-05-09T03:20:27;99996.16;;;14.03;100.00
20424;BME280;10371;49.042;8.002;2023-05-09T03:21:27;99997.81;;;14.04;100.00
20424;BME280;10371;49.042;8.002;2023-05-09T03:22:27;99998.78;;;14.03;100.00
20424;BME280;10371;49.042;8.002;2023-05-09T03:23:27;99992.03;;;14.00;100.00
20424;BME280;10371;49.042;8.002;2023-05-09T03:24:28;99992.72;;;14.02;100.00
20424;BME280;10371;49.042;8.002;2023-05-09T03:25:28;99996.16;;;14.03;100.00
20424;BME280;10371;49.042;8.002;2023-05-09T03:26:29;99991.91;;;14.02;100.00
20424;BME280;10371;49.042;8.002;2023-05-09T03:27:29;99998.94;;;14.01;100.00
20424;BME280;10371;49.042;8.002;2023-05-09T03:28:30;99998.94;;;14.01;100.00
20424;BME280;10371;49.042;8.002;2023-05-09T03:29:30;99993.53;;;14.03;100.00
20424;BME280;10371;49.042;8.002;2023-05-09T03:30:31;99991.09;;;14.01;100.00
20424;BME280;10371;49.042;8.002;2023-05-09T03:31:31;99993.69;;;14.01;100.00
20424;BME280;10371;49.042;8.002;2023-05-09T03:32:31;100001.28;;;14.04;100.00
20424;BME280;10371;49.042;8.002;2023-05-09T03:33:31;99999.47;;;14.05;100.00
20424;BME280;10371;49.042;8.002;2023-05-09T03:34:32;99998.50;;;14.06;100.00
20424;BME280;10371;49.042;8.002;2023-05-09T03:35:32;99995.88;;;14.06;100.00
20424;BME280;10371;49.042;8.002;2023-05-09T03:36:32;99997.53;;;14.07;100.00
20424;BME280;10371;49.042;8.002;2023-05-09T03:37:32;99991.47;;;14.06;100.00
20424;BME280;10371;49.042;8.002;2023-05-09T03:38:33;99988.84;;;14.06;100.00
20424;BME280;10371;49.042;8.002;2023-05-09T03:39:33;99994.06;;;14.06;100.00
20424;BME280;10371;49.042;8.002;2023-05-09T03:40:33;99992.31;;;14.07;100.00
20424;BME280;10371;49.042;8.002;2023-05-09T03:41:33;99989.53;;;14.08;100.00
20424;BME280;10371;49.042;8.002;2023-05-09T03:42:35;99989.69;;;14.07;100.00
20424;BME280;10371;49.042;8.002;2023-05-09T03:43:35;99989.53;;;14.08;100.00
20424;BME280;10371;49.042;8.002;2023-05-09T03:44:36;99992.03;;;14.10;100.00
20424;BME280;10371;49.042;8.002;2023-05-09T03:45:36;99997.25;;;14.10;100.00
20424;BME280;10371;49.042;8.002;2023-05-09T03:46:37;99985.13;;;14.09;100.00
20424;BME280;10371;49.042;8.002;2023-05-09T03:47:37;99985.94;;;14.09;100.00
20424;BME280;10371;49.042;8.002;2023-05-09T03:48:37;99977.94;;;14.11;100.00
20424;BME280;10371;49.042;8.002;2023-05-09T03:49:38;99977.81;;;14.13;100.00
20424;BME280;10371;49.042;8.002;2023-05-09T03:50:38;99982.91;;;14.14;100.00
20424;BME280;10371;49.042;8.002;2023-05-09T03:51:38;99979.47;;;14.14;100.00
20424;BME280;10371;49.042;8.002;2023-05-09T03:52:38;99978.47;;;14.15;100.00
20424;BME280;10371;49.042;8.002;2023-05-09T03:53:39;99975.88;;;14.15;100.00
20424;BME280;10371;49.042;8.002;2023-05-09T03:54:39;99980.16;;;14.16;100.00
20424;BME280;10371;49.042;8.002;2023-05-09T03:55:40;99978.34;;;14.16;100.00
20424;BME280;10371;49.042;8.002;2023-05-09T03:56:40;99979.34;;;14.15;100.00
20424;BME280;10371;49.042;8.002;2023-05-09T03:57:40;99972.44;;;14.14;100.00
20424;BME280;10371;49.042;8.002;2023-05-09T03:58:40;99975.75;;;14.16;100.00
20424;BME280;10371;49.042;8.002;2023-05-09T03:59:41;99977.38;;;14.17;100.00
20424;BME280;10371;49.042;8.002;2023-05-09T04:00:41;99977.53;;;14.16;100.00
20424;BME280;10371;49.042;8.002;2023-05-09T04:01:41;99976.44;;;14.18;100.00
20424;BME280;10371;49.042;8.002;2023-05-09T04:02:42;99976.44;;;14.18;100.00
20424;BME280;10371;49.042;8.002;2023-05-09T04:03:42;99976.25;;;14.20;100.00
20424;BME280;10371;49.042;8.002;2023-05-09T04:04:42;99973.53;;;14.21;100.00
20424;BME280;10371;49.042;8.002;2023-05-09T04:05:43;99982.88;;;14.24;100.00
20424;BME280;10371;49.042;8.002;2023-05-09T04:06:44;99979.28;;;14.25;100.00
20424;BME280;10371;49.042;8.002;2023-05-09T04:07:44;99983.41;;;14.27;100.00
20424;BME280;10371;49.042;8.002;2023-05-09T04:08:44;99985.06;;;14.28;100.00
20424;BME280;10371;49.042;8.002;2023-05-09T04:09:45;99983.41;;;14.27;100.00
20424;BME280;10371;49.042;8.002;2023-05-09T04:10:45;99989.88;;;14.33;100.00
20424;BME280;10371;49.042;8.002;2023-05-09T04:11:46;99983.66;;;14.34;100.00
20424;BME280;10371;49.042;8.002;2023-05-09T04:12:46;99989.72;;;14.35;100.00
20424;BME280;10371;49.042;8.002;2023-05-09T04:13:46;99996.31;;;14.39;100.00
20424;BME280;10371;49.042;8.002;2023-05-09T04:14:46;99985.97;;;14.37;100.00
20424;BME280;10371;49.042;8.002;2023-05-09T04:15:47;99994.41;;;14.41;100.00
20424;BME280;10371;49.042;8.002;2023-05-09T04:16:47;99993.41;;;14.42;100.00
20424;BME280;10371;49.042;8.002;2023-05-09T04:17:47;99995.75;;;14.45;100.00
20424;BME280;10371;49.042;8.002;2023-05-09T04:18:47;99995.44;;;14.48;100.00
20424;BME280;10371;49.042;8.002;2023-05-09T04:19:48;99986.38;;;14.52;100.00
20424;BME280;10371;49.042;8.002;2023-05-09T04:20:48;99997.50;;;14.54;100.00
20424;BME280;10371;49.042;8.002;2023-05-09T04:21:48;99985.94;;;14.57;100.00
20424;BME280;10371;49.042;8.002;2023-05-09T04:22:48;99989.22;;;14.59;100.00
20424;BME280;10371;49.042;8.002;2023-05-09T04:23:49;99987.28;;;14.61;100.00
20424;BME280;10371;49.042;8.002;2023-05-09T04:24:49;99987.81;;;14.64;100.00
20424;BME280;10371;49.042;8.002;2023-05-09T04:25:50;99987.81;;;14.64;100.00
20424;BME280;10371;49.042;8.002;2023-05-09T04:26:51;99988.50;;;14.66;100.00
20424;BME280;10371;49.042;8.002;2023-05-09T04:27:51;99986.56;;;14.68;100.00
20424;BME280;10371;49.042;8.002;2023-05-09T04:28:52;99980.34;;;14.69;100.00
20424;BME280;10371;49.042;8.002;2023-05-09T04:29:52;99984.31;;;14.73;100.00
20424;BME280;10371;49.042;8.002;2023-05-09T04:30:52;99984.06;;;14.77;100.00
20424;BME280;10371;49.042;8.002;2023-05-09T04:31:53;99988.16;;;14.79;100.00
20424;BME280;10371;49.042;8.002;2023-05-09T04:32:53;99983.59;;;14.81;100.00
20424;BME280;10371;49.042;8.002;2023-05-09T04:33:54;99990.34;;;14.84;100.00
20424;BME280;10371;49.042;8.002;2023-05-09T04:34:54;99983.84;;;14.88;100.00
20424;BME280;10371;49.042;8.002;2023-05-09T04:35:54;99988.63;;;14.92;100.00
20424;BME280;10371;49.042;8.002;2023-05-09T04:36:56;99985.72;;;14.95;100.00
20424;BME280;10371;49.042;8.002;2023-05-09T04:37:57;99990.00;;;14.96;100.00
20424;BME280;10371;49.042;8.002;2023-05-09T04:38:57;99993.97;;;15.01;100.00
20424;BME280;10371;49.042;8.002;2023-05-09T04:39:57;99988.59;;;15.02;100.00
20424;BME280;10371;49.042;8.002;2023-05-09T04:40:58;99995.47;;;15.03;100.00
20424;BME280;10371;49.042;8.002;2023-05-09T04:41:58;99988.28;;;15.05;100.00
20424;BME280;10371;49.042;8.002;2023-05-09T04:42:58;99989.78;;;15.08;100.00
20424;BME280;10371;49.042;8.002;2023-05-09T04:43:58;99974.69;;;15.10;100.00
20424;BME280;10371;49.042;8.002;2023-05-09T04:44:59;99978.00;;;15.12;100.00
20424;BME280;10371;49.042;8.002;2023-05-09T04:45:59;99976.88;;;15.14;100.00
20424;BME280;10371;49.042;8.002;2023-05-09T04:47:00;99976.59;;;15.17;100.00
20424;BME280;10371;49.042;8.002;2023-05-09T04:48:00;99969.53;;;15.18;100.00
20424;BME280;10371;49.042;8.002;2023-05-09T04:49:00;99976.81;;;15.24;100.00
20424;BME280;10371;49.042;8.002;2023-05-09T04:50:01;99975.53;;;15.28;100.00
20424;BME280;10371;49.042;8.002;2023-05-09T04:51:01;99979.66;;;15.31;100.00
20424;BME280;10371;49.042;8.002;2023-05-09T04:52:01;99973.13;;;15.35;100.00
20424;BME280;10371;49.042;8.002;2023-05-09T04:53:01;99983.03;;;15.41;100.00
20424;BME280;10371;49.042;8.002;2023-05-09T04:54:02;99967.81;;;15.45;100.00
20424;BME280;10371;49.042;8.002;2023-05-09T04:55:02;99970.56;;;15.43;100.00
20424;BME280;10371;49.042;8.002;2023-05-09T04:56:03;99975.38;;;15.48;100.00
20424;BME280;10371;49.042;8.002;2023-05-09T04:57:03;99972.44;;;15.51;100.00
20424;BME280;10371;49.042;8.002;2023-05-09T04:58:05;99968.38;;;15.56;100.00
20424;BME280;10371;49.042;8.002;2023-05-09T04:59:06;99970.41;;;15.62;100.00
20424;BME280;10371;49.042;8.002;2023-05-09T05:00:06;99969.84;;;15.69;100.00
20424;BME280;10371;49.042;8.002;2023-05-09T05:01:07;99965.94;;;15.73;100.00
20424;BME280;10371;49.042;8.002;2023-05-09T05:02:07;99963.66;;;15.78;100.00
20424;BME280;10371;49.042;8.002;2023-05-09T05:03:07;99953.97;;;15.78;100.00
20424;BME280;10371;49.042;8.002;2023-05-09T05:04:08;99958.78;;;15.83;100.00
20424;BME280;10371;49.042;8.002;2023-05-09T05:05:09;99957.47;;;15.87;100.00
20424;BME280;10371;49.042;8.002;2023-05-09T05:06:09;99960.78;;;15.89;100.00
20424;BME280;10371;49.042;8.002;2023-05-09T05:07:09;99956.84;;;15.93;100.00
20424;BME280;10371;49.042;8.002;2023-05-09T05:08:10;99960.84;;;15.97;100.00
20424;BME280;10371;49.042;8.002;2023-05-09T05:09:10;99955.94;;;16.02;100.00
20424;BME280;10371;49.042;8.002;2023-05-09T05:10:10;99957.44;;;16.05;100.00
20424;BME280;10371;49.042;8.002;2023-05-09T05:11:10;99954.66;;;16.06;100.00
20424;BME280;10371;49.042;8.002;2023-05-09T05:12:12;99954.31;;;16.09;100.00
20424;BME280;10371;49.042;8.002;2023-05-09T05:13:12;99953.88;;;16.14;100.00
20424;BME280;10371;49.042;8.002;2023-05-09T05:14:13;99958.00;;;16.17;100.00
20424;BME280;10371;49.042;8.002;2023-05-09T05:15:13;99956.69;;;16.21;100.00
20424;BME280;10371;49.042;8.002;2023-05-09T05:16:13;99959.84;;;16.24;100.00
20424;BME280;10371;49.042;8.002;2023-05-09T05:17:14;99962.16;;;16.27;100.00
20424;BME280;10371;49.042;8.002;2023-05-09T05:18:16;99953.94;;;16.30;100.00
20424;BME280;10371;49.042;8.002;2023-05-09T05:19:16;99960.69;;;16.33;100.00
20424;BME280;10371;49.042;8.002;2023-05-09T05:20:17;99960.53;;;16.35;100.00
20424;BME280;10371;49.042;8.002;2023-05-09T05:21:17;99956.94;;;16.36;100.00
20424;BME280;10371;49.042;8.002;2023-05-09T05:22:17;99953.31;;;16.37;100.00
20424;BME280;10371;49.042;8.002;2023-05-09T05:23:18;99951.34;;;16.39;100.00
20424;BME280;10371;49.042;8.002;2023-05-09T05:24:18;99953.00;;;16.40;100.00
20424;BME280;10371;49.042;8.002;2023-05-09T05:25:19;99953.66;;;16.42;100.00
20424;BME280;10371;49.042;8.002;2023-05-09T05:26:20;99956.13;;;16.43;100.00
20424;BME280;10371;49.042;8.002;2023-05-09T05:27:21;99946.28;;;16.45;100.00